createdAt,value
2023-03-18T00:00:16.749Z,84.90
2023-03-18T00:02:45.102Z,84.90
2023-03-18T00:05:14.804Z,84.90
2023-03-18T00:07:43.291Z,84.90
2023-03-18T00:10:12.443Z,84.90
2023-03-18T00:12:42.127Z,84.90
2023-03-18T00:15:14.454Z,84.90
2023-03-18T00:17:43.379Z,84.90
2023-03-18T00:20:13.905Z,84.90
2023-03-18T00:22:43.481Z,84.90
2023-03-18T00:25:14.103Z,84.90
2023-03-18T00:27:42.779Z,85.70
2023-03-18T00:30:13.983Z,84.90
2023-03-18T00:32:42.540Z,84.90
2023-03-18T00:35:12.224Z,85.00
2023-03-18T00:37:40.659Z,85.00
2023-03-18T00:40:17.318Z,84.90
2023-03-18T00:42:50.497Z,84.90
2023-03-18T00:45:20.245Z,84.90
2023-03-18T00:47:49.497Z,84.90
2023-03-18T00:50:18.513Z,85.00
2023-03-18T00:52:46.820Z,84.90
2023-03-18T00:55:15.747Z,84.90
2023-03-18T00:57:44.030Z,84.90
2023-03-18T01:00:16.908Z,84.90
2023-03-18T01:02:49.275Z,84.90
2023-03-18T01:05:18.525Z,84.90
2023-03-18T01:07:47.855Z,84.90
2023-03-18T01:10:17.576Z,84.90
2023-03-18T01:12:48.132Z,84.90
2023-03-18T01:15:19.734Z,85.00
2023-03-18T01:17:50.837Z,85.00
2023-03-18T01:20:21.304Z,85.70
2023-03-18T01:22:53.597Z,85.00
2023-03-18T01:25:22.345Z,85.00
2023-03-18T01:27:54.195Z,85.00
2023-03-18T01:30:23.675Z,85.00
2023-03-18T01:32:55.716Z,85.00
2023-03-18T01:35:24.231Z,85.80
2023-03-18T01:37:53.410Z,85.00
2023-03-18T01:40:22.987Z,85.00
2023-03-18T01:42:57.713Z,85.00
2023-03-18T01:45:30.226Z,85.00
2023-03-18T01:48:03.157Z,85.10
2023-03-18T01:50:37.938Z,85.00
2023-03-18T01:53:09.352Z,85.90
2023-03-18T01:55:39.927Z,85.10
2023-03-18T01:58:13.058Z,85.00
2023-03-18T02:00:47.025Z,85.00
2023-03-18T02:03:16.929Z,85.00
2023-03-18T02:05:45.472Z,85.00
2023-03-18T02:08:14.059Z,85.00
2023-03-18T02:10:42.298Z,85.10
2023-03-18T02:13:14.148Z,85.10
2023-03-18T02:15:48.760Z,85.00
2023-03-18T02:18:22.266Z,85.00
2023-03-18T02:21:04.750Z,85.00
2023-03-18T02:23:42.785Z,85.10
2023-03-18T02:26:18.623Z,85.00
2023-03-18T02:28:50.410Z,85.00
2023-03-18T02:31:20.452Z,85.00
2023-03-18T02:33:48.944Z,85.00
2023-03-18T02:36:22.625Z,85.00
2023-03-18T02:38:52.120Z,85.00
2023-03-18T02:41:27.726Z,85.00
2023-03-18T02:43:57.461Z,85.00
2023-03-18T02:46:34.222Z,85.00
2023-03-18T02:49:04.932Z,85.00
2023-03-18T02:51:33.187Z,85.00
2023-03-18T02:54:06.516Z,85.10
2023-03-18T02:56:35.224Z,85.10
2023-03-18T02:59:05.615Z,85.00
2023-03-18T03:01:35.512Z,85.00
2023-03-18T03:04:05.393Z,85.00
2023-03-18T03:06:34.224Z,85.10
2023-03-18T03:09:03.116Z,85.10
2023-03-18T03:11:31.747Z,85.10
2023-03-18T03:14:09.456Z,85.10
2023-03-18T03:16:38.367Z,85.00
2023-03-18T03:19:06.901Z,85.10
2023-03-18T03:21:37.669Z,85.00
2023-03-18T03:24:07.585Z,85.00
2023-03-18T03:26:36.148Z,85.10
2023-03-18T03:29:05.472Z,85.10
2023-03-18T03:31:35.442Z,85.10
2023-03-18T03:34:05.610Z,85.10
2023-03-18T03:36:34.171Z,85.10
2023-03-18T03:39:02.393Z,85.10
2023-03-18T03:41:30.693Z,85.10
2023-03-18T03:43:58.954Z,85.10
2023-03-18T03:46:27.802Z,85.10
2023-03-18T03:48:57.753Z,85.10
2023-03-18T03:51:26.262Z,85.10
2023-03-18T03:53:55.049Z,85.10
2023-03-18T03:56:23.361Z,85.10
2023-03-18T03:58:51.696Z,85.10
2023-03-18T04:01:20.040Z,85.10
2023-03-18T04:03:49.761Z,85.20
2023-03-18T04:06:20.362Z,85.20
2023-03-18T04:08:57.313Z,85.20
2023-03-18T04:11:26.816Z,85.10
2023-03-18T04:13:55.091Z,85.10
2023-03-18T04:16:23.736Z,85.10
2023-03-18T04:18:52.250Z,85.10
2023-03-18T04:21:24.769Z,85.10
2023-03-18T04:23:55.570Z,85.10
2023-03-18T04:26:24.148Z,85.10
2023-03-18T04:28:53.888Z,85.20
2023-03-18T04:31:23.330Z,85.20
2023-03-18T04:33:51.621Z,85.10
2023-03-18T04:36:19.937Z,86.00
2023-03-18T04:38:50.370Z,85.20
2023-03-18T04:41:19.009Z,86.00
2023-03-18T04:43:47.632Z,85.20
2023-03-18T04:46:16.781Z,85.20
2023-03-18T04:48:47.150Z,85.20
2023-03-18T04:51:15.735Z,85.20
2023-03-18T04:53:44.651Z,85.20
2023-03-18T04:56:14.716Z,85.20
2023-03-18T04:58:48.877Z,85.20
2023-03-18T05:01:21.405Z,85.20
2023-03-18T05:03:50.301Z,85.20
2023-03-18T05:06:25.281Z,85.30
2023-03-18T05:09:00.153Z,85.20
2023-03-18T05:11:35.003Z,85.20
2023-03-18T05:14:13.781Z,85.30
2023-03-18T05:16:46.204Z,85.30
2023-03-18T05:19:15.614Z,85.30
2023-03-18T05:21:51.009Z,85.30
2023-03-18T05:24:20.536Z,85.30
2023-03-18T05:26:50.176Z,85.30
2023-03-18T05:29:20.537Z,85.30
2023-03-18T05:31:58.085Z,85.30
2023-03-18T05:34:27.688Z,85.30
2023-03-18T05:36:57.670Z,85.40
2023-03-18T05:39:27.118Z,85.30
2023-03-18T05:41:57.247Z,86.10
2023-03-18T05:44:29.677Z,85.30
2023-03-18T05:47:01.643Z,85.30
2023-03-18T05:49:49.320Z,85.30
2023-03-18T05:52:23.618Z,86.10
2023-03-18T05:54:54.451Z,85.40
2023-03-18T05:57:29.394Z,85.40
2023-03-18T06:00:04.655Z,85.30
2023-03-18T06:02:43.749Z,85.40
2023-03-18T06:05:14.177Z,85.40
2023-03-18T06:07:43.137Z,86.20
2023-03-18T06:10:12.696Z,85.30
2023-03-18T06:12:44.471Z,85.30
2023-03-18T06:15:14.655Z,85.30
2023-03-18T06:17:42.997Z,85.30
2023-03-18T06:20:14.288Z,85.30
2023-03-18T06:22:43.775Z,85.30
2023-03-18T06:25:12.142Z,85.30
2023-03-18T06:27:42.589Z,85.30
2023-03-18T06:30:13.304Z,85.30
2023-03-18T06:32:41.969Z,85.30
2023-03-18T06:35:11.962Z,85.20
2023-03-18T06:37:41.586Z,85.40
2023-03-18T06:40:12.409Z,85.30
2023-03-18T06:42:43.112Z,85.30
2023-03-18T06:45:17.137Z,85.30
2023-03-18T06:47:54.007Z,85.30
2023-03-18T06:50:22.480Z,85.20
2023-03-18T06:52:51.149Z,85.30
2023-03-18T06:55:25.515Z,85.30
2023-03-18T06:57:59.024Z,85.10
2023-03-18T07:00:37.734Z,85.10
2023-03-18T07:03:08.147Z,85.20
2023-03-18T07:05:36.495Z,85.10
2023-03-18T07:08:04.857Z,85.10
2023-03-18T07:10:33.233Z,85.20
2023-03-18T07:13:11.135Z,85.20
2023-03-18T07:15:41.643Z,85.10
2023-03-18T07:18:12.141Z,85.00
2023-03-18T07:20:41.798Z,85.00
2023-03-18T07:23:11.367Z,85.00
2023-03-18T07:25:39.724Z,85.00
2023-03-18T07:28:08.011Z,84.90
2023-03-18T07:30:38.250Z,85.00
2023-03-18T07:33:07.024Z,84.90
2023-03-18T07:35:35.898Z,84.90
2023-03-18T07:38:04.378Z,84.80
2023-03-18T07:40:32.634Z,84.80
2023-03-18T07:43:01.061Z,84.80
2023-03-18T07:45:30.237Z,84.80
2023-03-18T07:48:00.194Z,84.70
2023-03-18T07:50:28.894Z,84.70
2023-03-18T07:52:57.255Z,84.80
2023-03-18T07:55:25.538Z,84.60
2023-03-18T07:57:53.880Z,84.60
2023-03-18T08:00:23.469Z,84.60
2023-03-18T08:02:51.813Z,84.60
2023-03-18T08:05:22.121Z,84.50
2023-03-18T08:07:50.506Z,84.50
2023-03-18T08:10:19.057Z,84.60
2023-03-18T08:12:53.268Z,84.60
2023-03-18T08:15:22.608Z,84.50
2023-03-18T08:17:51.260Z,84.50
2023-03-18T08:20:21.592Z,84.40
2023-03-18T08:22:50.080Z,84.50
2023-03-18T08:25:18.673Z,84.40
2023-03-18T08:27:47.035Z,84.40
2023-03-18T08:30:16.443Z,84.40
2023-03-18T08:32:45.163Z,84.40
2023-03-18T08:35:14.110Z,84.50
2023-03-18T08:37:43.951Z,84.50
2023-03-18T08:40:13.460Z,84.40
2023-03-18T08:42:41.877Z,85.20
2023-03-18T08:45:12.305Z,84.40
2023-03-18T08:47:41.505Z,84.40
2023-03-18T08:50:11.849Z,84.40
2023-03-18T08:52:41.264Z,84.40
2023-03-18T08:55:11.620Z,84.30
2023-03-18T08:57:39.927Z,84.40
2023-03-18T09:00:10.058Z,84.30
2023-03-18T09:02:38.653Z,84.30
2023-03-18T09:05:07.797Z,84.40
2023-03-18T09:07:36.312Z,84.30
2023-03-18T09:10:04.988Z,84.40
2023-03-18T09:12:35.833Z,84.40
2023-03-18T09:15:10.059Z,84.40
2023-03-18T09:17:56.710Z,84.40
2023-03-18T09:20:28.901Z,84.40
2023-03-18T09:22:57.540Z,84.30
2023-03-18T09:25:27.090Z,84.30
2023-03-18T09:27:56.753Z,85.10
2023-03-18T09:30:26.647Z,84.30
2023-03-18T09:32:55.154Z,84.30
2023-03-18T09:35:24.323Z,84.30
2023-03-18T09:37:54.029Z,84.40
2023-03-18T09:40:27.693Z,84.90
2023-03-18T09:43:17.170Z,84.30
2023-03-18T09:45:58.068Z,84.30
2023-03-18T09:48:50.544Z,84.30
2023-03-18T09:51:29.812Z,84.30
2023-03-18T09:54:02.614Z,84.30
2023-03-18T09:56:34.896Z,84.20
2023-03-18T09:59:07.726Z,84.30
2023-03-18T10:01:39.043Z,84.20
2023-03-18T10:04:14.853Z,84.20
2023-03-18T10:06:47.133Z,84.20
2023-03-18T10:09:22.023Z,84.20
2023-03-18T10:11:52.626Z,85.00
2023-03-18T10:14:37.296Z,84.20
2023-03-18T10:17:17.909Z,84.40
2023-03-18T10:19:50.858Z,84.20
2023-03-18T10:22:48.185Z,84.20
2023-03-18T10:25:25.810Z,84.10
2023-03-18T10:28:10.018Z,84.10
2023-03-18T10:30:54.965Z,84.20
2023-03-18T10:33:33.958Z,84.20
2023-03-18T10:36:12.444Z,84.30
2023-03-18T10:38:44.777Z,84.30
2023-03-18T10:41:18.770Z,84.30
2023-03-18T10:43:48.635Z,84.30
2023-03-18T10:46:21.830Z,84.30
2023-03-18T10:48:54.256Z,84.20
2023-03-18T10:51:31.431Z,84.30
2023-03-18T10:54:05.724Z,84.20
2023-03-18T10:56:35.972Z,84.10
2023-03-18T10:59:11.929Z,84.20
2023-03-18T11:01:43.301Z,84.20
2023-03-18T11:04:15.997Z,84.10
2023-03-18T11:06:48.399Z,84.10
2023-03-18T11:09:19.950Z,84.10
2023-03-18T11:11:49.784Z,84.10
2023-03-18T11:14:22.204Z,84.20
2023-03-18T11:16:59.475Z,84.10
2023-03-18T11:19:32.339Z,84.10
2023-03-18T11:22:04.517Z,84.10
2023-03-18T11:24:39.434Z,84.10
2023-03-18T11:27:29.153Z,84.20
2023-03-18T11:29:59.974Z,84.10
2023-03-18T11:32:32.279Z,84.20
2023-03-18T11:35:03.085Z,84.30
2023-03-18T11:37:33.800Z,84.20
2023-03-18T11:40:18.628Z,84.30
2023-03-18T11:42:48.679Z,84.30
2023-03-18T11:45:32.002Z,84.30
2023-03-18T11:48:03.653Z,84.30
2023-03-18T11:50:44.955Z,84.40
2023-03-18T11:53:19.063Z,84.40
2023-03-18T11:55:50.929Z,84.30
2023-03-18T11:58:41.056Z,84.40
2023-03-18T12:01:18.626Z,84.40
2023-03-18T12:04:12.364Z,84.40
2023-03-18T12:06:49.257Z,84.40
2023-03-18T12:09:26.232Z,85.20
2023-03-18T12:12:06.984Z,84.60
2023-03-18T12:14:42.135Z,84.50
2023-03-18T12:17:23.372Z,84.60
2023-03-18T12:20:07.253Z,84.50
2023-03-18T12:22:56.474Z,84.50
2023-03-18T12:25:47.354Z,85.40
2023-03-18T12:28:30.047Z,84.50
2023-03-18T12:31:19.611Z,84.50
2023-03-18T12:33:56.559Z,84.50
2023-03-18T12:36:38.648Z,84.50
2023-03-18T12:39:38.858Z,84.50
2023-03-18T12:42:13.422Z,84.50
2023-03-18T12:44:59.500Z,84.50
2023-03-18T12:47:36.986Z,84.50
2023-03-18T12:50:08.772Z,84.50
2023-03-18T12:52:43.900Z,84.50
2023-03-18T12:55:17.960Z,84.50
2023-03-18T12:57:49.291Z,84.50
2023-03-18T13:00:32.254Z,84.40
2023-03-18T13:03:07.475Z,84.50
2023-03-18T13:05:45.450Z,84.40
2023-03-18T13:08:45.707Z,84.60
2023-03-18T13:11:35.379Z,84.60
2023-03-18T13:14:08.307Z,84.50
2023-03-18T13:16:38.930Z,84.50
2023-03-18T13:19:07.524Z,84.40
2023-03-18T13:21:42.027Z,84.50
2023-03-18T13:24:43.232Z,84.40
2023-03-18T13:27:35.922Z,84.50
2023-03-18T13:30:13.617Z,84.50
2023-03-18T13:32:58.378Z,84.50
2023-03-18T13:36:08.974Z,84.50
2023-03-18T13:39:02.699Z,84.40
2023-03-18T13:41:51.120Z,84.40
2023-03-18T13:44:23.775Z,84.40
2023-03-18T13:46:58.748Z,84.40
2023-03-18T13:49:30.986Z,84.40
2023-03-18T13:52:01.322Z,84.50
2023-03-18T13:54:35.986Z,84.50
2023-03-18T13:57:36.902Z,84.50
2023-03-18T14:00:26.433Z,84.60
2023-03-18T14:03:21.875Z,84.50
2023-03-18T14:05:51.630Z,84.60
2023-03-18T14:08:48.820Z,84.60
2023-03-18T14:11:48.052Z,85.40
2023-03-18T14:15:06.137Z,84.70
2023-03-18T14:17:47.740Z,84.70
2023-03-18T14:20:28.621Z,84.70
2023-03-18T14:23:18.979Z,84.70
2023-03-18T14:25:54.460Z,84.70
2023-03-18T14:28:27.115Z,84.70
2023-03-18T14:31:15.859Z,84.70
2023-03-18T14:34:32.018Z,84.60
2023-03-18T14:37:30.809Z,84.70
2023-03-18T14:40:07.256Z,84.70
2023-03-18T14:42:43.964Z,84.70
2023-03-18T14:45:19.990Z,84.70
2023-03-18T14:47:51.686Z,84.70
2023-03-18T14:50:42.056Z,84.70
2023-03-18T14:53:20.257Z,84.70
2023-03-18T14:55:49.869Z,84.80
2023-03-18T14:58:19.244Z,84.70
2023-03-18T15:00:49.747Z,85.50
2023-03-18T15:03:23.065Z,84.70
2023-03-18T15:05:52.450Z,85.60
2023-03-18T15:08:29.904Z,84.70
2023-03-18T15:11:05.775Z,84.80
2023-03-18T15:13:35.726Z,84.80
2023-03-18T15:16:05.897Z,84.70
2023-03-18T15:18:36.183Z,84.70
2023-03-18T15:21:08.516Z,84.70
2023-03-18T15:23:41.741Z,84.70
2023-03-18T15:26:20.616Z,84.80
2023-03-18T15:28:49.990Z,84.70
2023-03-18T15:31:26.384Z,84.70
2023-03-18T15:34:07.586Z,84.70
2023-03-18T15:36:43.268Z,84.70
2023-03-18T15:39:23.305Z,84.70
2023-03-18T15:41:53.261Z,84.70
2023-03-18T15:44:28.604Z,84.70
2023-03-18T15:47:04.135Z,84.60
2023-03-18T15:49:33.264Z,84.70
2023-03-18T15:52:02.781Z,84.70
2023-03-18T15:54:40.016Z,84.70
2023-03-18T15:57:13.789Z,84.80
2023-03-18T15:59:42.511Z,84.70
2023-03-18T16:02:16.017Z,84.70
2023-03-18T16:04:46.005Z,84.90
2023-03-18T16:07:18.866Z,84.90
2023-03-18T16:09:48.806Z,84.90
2023-03-18T16:12:20.628Z,84.80
2023-03-18T16:14:52.466Z,84.90
2023-03-18T16:17:22.308Z,84.90
2023-03-18T16:19:54.413Z,84.90
2023-03-18T16:22:23.245Z,84.90
2023-03-18T16:24:53.218Z,84.90
2023-03-18T16:27:30.053Z,85.70
2023-03-18T16:29:58.457Z,85.00
2023-03-18T16:32:27.280Z,85.00
2023-03-18T16:34:55.847Z,85.00
2023-03-18T16:37:26.340Z,85.00
2023-03-18T16:39:57.185Z,85.00
2023-03-18T16:42:27.175Z,85.10
2023-03-18T16:44:55.860Z,85.10
2023-03-18T16:47:27.220Z,85.10
2023-03-18T16:49:56.461Z,85.10
2023-03-18T16:52:25.403Z,85.10
2023-03-18T16:54:55.074Z,85.20
2023-03-18T16:57:24.045Z,85.10
2023-03-18T16:59:55.860Z,85.20
2023-03-18T17:02:33.517Z,85.20
2023-03-18T17:05:02.736Z,85.20
2023-03-18T17:07:31.177Z,85.30
2023-03-18T17:10:01.663Z,85.40
2023-03-18T17:12:30.729Z,85.30
2023-03-18T17:14:59.921Z,85.30
2023-03-18T17:17:31.539Z,85.40
2023-03-18T17:20:00.495Z,85.50
2023-03-18T17:22:30.892Z,85.40
2023-03-18T17:25:02.190Z,85.40
2023-03-18T17:27:33.976Z,85.50
2023-03-18T17:30:03.747Z,85.50
2023-03-18T17:32:32.099Z,85.50
2023-03-18T17:35:00.833Z,85.50
2023-03-18T17:37:29.129Z,85.50
2023-03-18T17:39:57.411Z,85.50
2023-03-18T17:42:30.897Z,85.50
2023-03-18T17:45:05.519Z,85.60
2023-03-18T17:47:34.118Z,85.60
2023-03-18T17:50:03.244Z,85.60
2023-03-18T17:52:32.060Z,85.60
2023-03-18T17:55:00.764Z,85.60
2023-03-18T17:57:31.968Z,85.60
2023-03-18T18:00:00.429Z,85.70
2023-03-18T18:02:28.990Z,85.60
2023-03-18T18:04:57.307Z,85.60
2023-03-18T18:07:25.563Z,85.70
2023-03-18T18:09:54.378Z,85.60
2023-03-18T18:12:25.250Z,85.60
2023-03-18T18:14:54.969Z,86.40
2023-03-18T18:17:23.302Z,85.70
2023-03-18T18:19:51.560Z,85.70
2023-03-18T18:22:24.923Z,85.70
2023-03-18T18:24:53.507Z,85.70
2023-03-18T18:27:21.973Z,85.70
2023-03-18T18:29:50.546Z,85.70
2023-03-18T18:32:22.198Z,85.70
2023-03-18T18:34:50.829Z,85.80
2023-03-18T18:37:19.213Z,85.70
2023-03-18T18:39:47.622Z,85.70
2023-03-18T18:42:16.392Z,85.70
2023-03-18T18:44:44.842Z,85.70
2023-03-18T18:47:20.347Z,85.70
2023-03-18T18:49:48.591Z,85.80
2023-03-18T18:52:16.969Z,85.70
2023-03-18T18:54:45.399Z,85.80
2023-03-18T18:57:26.696Z,85.80
2023-03-18T18:59:55.621Z,85.80
2023-03-18T19:02:32.088Z,85.80
2023-03-18T19:05:01.065Z,85.80
2023-03-18T19:07:30.294Z,85.80
2023-03-18T19:09:58.558Z,85.80
2023-03-18T19:12:27.553Z,85.80
2023-03-18T19:14:56.168Z,85.80
2023-03-18T19:17:25.616Z,85.80
2023-03-18T19:19:55.688Z,85.80
2023-03-18T19:22:25.430Z,85.80
2023-03-18T19:24:53.770Z,85.90
2023-03-18T19:27:24.902Z,85.80
2023-03-18T19:29:55.627Z,85.80
2023-03-18T19:32:24.660Z,85.90
2023-03-18T19:34:56.045Z,85.90
2023-03-18T19:37:28.825Z,85.90
2023-03-18T19:39:57.794Z,85.90
2023-03-18T19:42:26.352Z,85.80
2023-03-18T19:44:54.711Z,85.90
2023-03-18T19:47:25.912Z,85.90
2023-03-18T19:49:55.692Z,85.90
2023-03-18T19:52:26.456Z,85.90
2023-03-18T19:54:56.137Z,86.00
2023-03-18T19:57:27.595Z,85.90
2023-03-18T19:59:58.387Z,85.90
2023-03-18T20:02:28.828Z,85.90
2023-03-18T20:05:00.200Z,85.90
2023-03-18T20:07:30.951Z,86.00
2023-03-18T20:09:59.529Z,86.00
2023-03-18T20:12:38.516Z,86.00
2023-03-18T20:15:09.312Z,86.00
2023-03-18T20:17:40.512Z,86.00
2023-03-18T20:20:14.408Z,85.90
2023-03-18T20:22:47.483Z,85.90
2023-03-18T20:25:22.287Z,86.00
2023-03-18T20:27:53.563Z,85.90
2023-03-18T20:30:29.212Z,85.90
2023-03-18T20:32:58.316Z,86.00
2023-03-18T20:35:30.244Z,85.90
2023-03-18T20:38:01.390Z,86.00
2023-03-18T20:40:31.314Z,86.00
2023-03-18T20:42:59.611Z,86.00
2023-03-18T20:45:28.110Z,86.00
2023-03-18T20:47:56.661Z,86.00
2023-03-18T20:50:29.749Z,86.00
2023-03-18T20:52:58.719Z,86.00
2023-03-18T20:55:30.705Z,86.00
2023-03-18T20:57:59.954Z,86.10
2023-03-18T21:00:30.212Z,86.80
2023-03-18T21:03:00.465Z,86.10
2023-03-18T21:05:30.372Z,85.90
2023-03-18T21:07:58.723Z,85.90
2023-03-18T21:10:28.387Z,85.90
2023-03-18T21:12:56.943Z,85.90
2023-03-18T21:15:27.084Z,86.00
2023-03-18T21:17:56.158Z,86.10
2023-03-18T21:20:30.059Z,86.00
2023-03-18T21:22:58.341Z,86.00
2023-03-18T21:25:28.774Z,86.00
2023-03-18T21:27:57.820Z,86.00
2023-03-18T21:30:26.225Z,85.90
2023-03-18T21:32:54.655Z,86.00
2023-03-18T21:35:25.677Z,86.00
2023-03-18T21:37:55.627Z,86.00
2023-03-18T21:40:26.238Z,86.00
2023-03-18T21:42:54.868Z,86.00
2023-03-18T21:45:24.270Z,86.00
2023-03-18T21:47:53.134Z,86.00
2023-03-18T21:50:23.973Z,85.90
2023-03-18T21:52:52.786Z,86.00
2023-03-18T21:55:22.688Z,85.90
2023-03-18T21:57:51.070Z,86.00
2023-03-18T22:00:21.089Z,86.00
2023-03-18T22:02:50.195Z,86.00
2023-03-18T22:05:20.482Z,86.00
2023-03-18T22:07:50.383Z,86.00
2023-03-18T22:10:21.059Z,86.00
2023-03-18T22:12:50.947Z,86.00
2023-03-18T22:15:35.625Z,86.00
2023-03-18T22:18:04.981Z,86.00
2023-03-18T22:20:35.128Z,86.00
2023-03-18T22:23:11.262Z,86.00
2023-03-18T22:25:41.286Z,86.00
2023-03-18T22:28:12.591Z,86.10
2023-03-18T22:30:43.049Z,86.00
2023-03-18T22:33:20.077Z,86.00
2023-03-18T22:35:48.685Z,86.00
2023-03-18T22:38:18.823Z,86.00
2023-03-18T22:40:49.817Z,86.00
2023-03-18T22:43:31.662Z,86.10
2023-03-18T22:46:01.626Z,86.10
2023-03-18T22:48:30.289Z,86.10
2023-03-18T22:51:00.110Z,86.10
2023-03-18T22:53:31.838Z,86.00
2023-03-18T22:56:03.634Z,86.10
2023-03-18T22:58:33.309Z,86.00
2023-03-18T23:01:01.691Z,86.10
2023-03-18T23:03:32.385Z,86.10
2023-03-18T23:06:01.981Z,86.10
2023-03-18T23:08:30.577Z,86.10
2023-03-18T23:11:02.506Z,86.10
2023-03-18T23:13:36.842Z,86.10
2023-03-18T23:16:05.860Z,86.10
2023-03-18T23:18:34.968Z,86.20
2023-03-18T23:21:03.320Z,86.00
2023-03-18T23:23:31.683Z,86.10
2023-03-18T23:26:00.143Z,86.00
2023-03-18T23:28:28.443Z,86.10
2023-03-18T23:30:58.284Z,86.00
2023-03-18T23:33:26.571Z,86.00
2023-03-18T23:35:55.152Z,86.10
2023-03-18T23:38:23.422Z,86.10
2023-03-18T23:40:52.019Z,86.10
2023-03-18T23:43:21.437Z,86.10
2023-03-18T23:45:49.929Z,86.10
2023-03-18T23:48:19.591Z,86.10
2023-03-18T23:50:48.063Z,86.00
2023-03-18T23:53:16.251Z,86.00
2023-03-18T23:55:44.634Z,86.10
2023-03-18T23:58:12.950Z,86.10
